createdAt,value
2019-03-12T00:00:34.037Z,99.90
2019-03-12T00:03:03.257Z,99.90
2019-03-12T00:05:32.562Z,99.90
2019-03-12T00:08:01.794Z,99.90
2019-03-12T00:10:31.054Z,99.90
2019-03-12T00:13:00.375Z,99.90
2019-03-12T00:15:29.594Z,99.90
2019-03-12T00:17:58.870Z,99.90
2019-03-12T00:20:28.074Z,99.90
2019-03-12T00:22:57.354Z,99.90
2019-03-12T00:25:26.588Z,99.90
2019-03-12T00:27:55.832Z,99.90
2019-03-12T00:30:25.070Z,99.90
2019-03-12T00:32:55.775Z,99.90
2019-03-12T00:35:25.273Z,99.90
2019-03-12T00:37:54.487Z,99.90
2019-03-12T00:40:23.712Z,99.90
2019-03-12T00:42:52.860Z,99.90
2019-03-12T00:45:22.115Z,99.90
2019-03-12T00:47:51.248Z,99.90
2019-03-12T00:50:20.388Z,99.90
2019-03-12T00:52:49.708Z,99.90
2019-03-12T00:55:18.958Z,99.90
2019-03-12T00:57:48.104Z,99.90
2019-03-12T01:00:17.344Z,99.90
2019-03-12T01:02:46.590Z,99.90
2019-03-12T01:05:15.748Z,99.90
2019-03-12T01:07:44.930Z,99.90
2019-03-12T01:10:14.588Z,99.90
2019-03-12T01:12:43.840Z,99.90
2019-03-12T01:15:13.426Z,99.90
2019-03-12T01:17:42.680Z,99.90
2019-03-12T01:20:12.462Z,99.90
2019-03-12T01:22:41.720Z,99.90
2019-03-12T01:25:11.427Z,99.90
2019-03-12T01:27:40.707Z,99.90
2019-03-12T01:30:12.169Z,99.90
2019-03-12T01:32:41.328Z,99.90
2019-03-12T01:35:10.479Z,99.90
2019-03-12T01:37:39.711Z,99.90
2019-03-12T01:40:10.487Z,99.90
2019-03-12T01:42:39.788Z,99.90
2019-03-12T01:45:10.720Z,99.90
2019-03-12T01:47:39.922Z,99.90
2019-03-12T01:50:09.976Z,99.90
2019-03-12T01:52:39.218Z,99.90
2019-03-12T01:55:09.355Z,99.90
2019-03-12T01:57:38.588Z,99.90
2019-03-12T02:00:10.112Z,99.90
2019-03-12T02:02:39.267Z,99.90
2019-03-12T02:05:08.521Z,99.90
2019-03-12T02:07:37.675Z,99.90
2019-03-12T02:10:07.030Z,99.90
2019-03-12T02:12:36.257Z,99.90
2019-03-12T02:15:07.424Z,99.90
2019-03-12T02:17:36.598Z,99.90
2019-03-12T02:20:07.088Z,99.90
2019-03-12T02:22:36.226Z,99.90
2019-03-12T02:25:05.595Z,99.90
2019-03-12T02:27:34.739Z,99.90
2019-03-12T02:30:04.364Z,99.90
2019-03-12T02:32:33.509Z,99.90
2019-03-12T02:35:02.806Z,99.90
2019-03-12T02:37:32.188Z,99.90
2019-03-12T02:40:01.571Z,99.90
2019-03-12T02:42:30.848Z,99.90
2019-03-12T02:45:00.059Z,99.90
2019-03-12T02:47:29.408Z,99.90
2019-03-12T02:49:58.646Z,99.90
2019-03-12T02:52:27.860Z,99.90
2019-03-12T02:54:57.089Z,99.90
2019-03-12T02:57:26.408Z,99.90
2019-03-12T02:59:55.543Z,99.90
2019-03-12T03:02:24.789Z,99.90
2019-03-12T03:04:54.555Z,99.90
2019-03-12T03:07:42.985Z,99.90
2019-03-12T03:10:14.163Z,99.90
2019-03-12T03:12:43.409Z,99.90
2019-03-12T03:15:18.503Z,99.90
2019-03-12T03:17:47.688Z,99.90
2019-03-12T03:20:16.985Z,99.90
2019-03-12T03:22:46.271Z,99.90
2019-03-12T03:25:16.437Z,99.90
2019-03-12T03:27:45.784Z,99.90
2019-03-12T03:30:17.833Z,99.90
2019-03-12T03:32:47.207Z,99.90
2019-03-12T03:35:16.739Z,99.90
2019-03-12T03:37:46.012Z,99.90
2019-03-12T03:40:17.047Z,99.90
2019-03-12T03:42:46.296Z,99.90
2019-03-12T03:45:15.709Z,99.90
2019-03-12T03:47:44.879Z,99.90
2019-03-12T03:50:14.376Z,99.90
2019-03-12T03:52:43.595Z,99.90
2019-03-12T03:55:14.542Z,99.90
2019-03-12T03:57:43.985Z,99.90
2019-03-12T04:00:15.990Z,99.90
2019-03-12T04:02:45.155Z,99.90
2019-03-12T04:05:14.319Z,99.90
2019-03-12T04:07:43.598Z,99.90
2019-03-12T04:10:13.331Z,99.90
2019-03-12T04:12:42.727Z,99.90
2019-03-12T04:15:12.636Z,99.90
2019-03-12T04:17:42.134Z,99.90
2019-03-12T04:20:11.474Z,99.90
2019-03-12T04:22:40.784Z,99.90
2019-03-12T04:25:09.977Z,99.90
2019-03-12T04:27:39.200Z,99.90
2019-03-12T04:30:09.757Z,99.90
2019-03-12T04:32:38.995Z,99.90
2019-03-12T04:35:09.641Z,99.90
2019-03-12T04:37:38.820Z,99.90
2019-03-12T04:40:08.687Z,99.90
2019-03-12T04:42:37.976Z,99.90
2019-03-12T04:45:08.524Z,99.90
2019-03-12T04:47:37.759Z,99.90
2019-03-12T04:50:07.122Z,99.90
2019-03-12T04:52:36.339Z,99.90
2019-03-12T04:55:06.338Z,99.90
2019-03-12T04:57:35.501Z,99.90
2019-03-12T05:00:05.975Z,99.90
2019-03-12T05:02:35.242Z,99.90
2019-03-12T05:05:05.075Z,99.90
2019-03-12T05:07:34.323Z,99.90
2019-03-12T05:10:03.799Z,99.90
2019-03-12T05:12:33.110Z,99.90
2019-03-12T05:15:02.399Z,99.90
2019-03-12T05:17:33.847Z,99.90
2019-03-12T05:20:03.056Z,99.90
2019-03-12T05:22:32.282Z,99.90
2019-03-12T05:25:01.459Z,99.90
2019-03-12T05:27:30.619Z,99.90
2019-03-12T05:29:59.895Z,99.90
2019-03-12T05:32:29.206Z,99.90
2019-03-12T05:34:58.339Z,99.90
2019-03-12T05:37:27.581Z,99.90
2019-03-12T05:39:56.831Z,99.90
2019-03-12T05:42:26.095Z,99.90
2019-03-12T05:44:55.352Z,99.90
2019-03-12T05:47:24.591Z,99.90
2019-03-12T05:49:53.927Z,99.90
2019-03-12T05:52:23.224Z,99.90
2019-03-12T05:54:52.465Z,99.90
2019-03-12T05:57:21.622Z,99.90
2019-03-12T05:59:50.788Z,99.90
2019-03-12T06:02:19.963Z,99.90
2019-03-12T06:04:49.158Z,99.90
2019-03-12T06:07:18.437Z,99.90
2019-03-12T06:09:47.598Z,99.90
2019-03-12T06:12:16.829Z,99.90
2019-03-12T06:14:46.038Z,99.90
2019-03-12T06:17:15.235Z,99.90
2019-03-12T06:19:44.359Z,99.90
2019-03-12T06:22:13.658Z,99.90
2019-03-12T06:24:42.884Z,99.90
2019-03-12T06:27:12.063Z,99.90
2019-03-12T06:29:41.281Z,99.90
2019-03-12T06:32:20.173Z,99.90
2019-03-12T06:35:11.569Z,99.90
2019-03-12T06:37:49.342Z,99.90
2019-03-12T06:40:37.573Z,99.90
2019-03-12T06:43:28.712Z,99.90
2019-03-12T06:46:19.910Z,99.90
2019-03-12T06:48:56.131Z,99.90
2019-03-12T06:51:34.488Z,99.90
2019-03-12T06:54:21.560Z,99.90
2019-03-12T06:57:03.502Z,99.90
2019-03-12T06:59:41.996Z,99.90
2019-03-12T07:02:21.743Z,99.90
2019-03-12T07:05:22.015Z,99.90
2019-03-12T07:08:28.722Z,99.90
2019-03-12T07:11:26.037Z,99.90
2019-03-12T07:14:08.642Z,99.90
2019-03-12T07:16:55.527Z,99.90
2019-03-12T07:20:01.895Z,99.90
2019-03-12T07:22:40.750Z,99.90
2019-03-12T07:25:15.636Z,99.90
2019-03-12T07:28:07.043Z,99.90
2019-03-12T07:31:01.762Z,99.90
2019-03-12T07:33:52.779Z,99.90
2019-03-12T07:36:39.875Z,99.90
2019-03-12T07:39:26.141Z,99.90
2019-03-12T07:42:20.523Z,99.90
2019-03-12T07:45:08.813Z,99.90
2019-03-12T07:47:47.019Z,99.90
2019-03-12T07:50:41.434Z,99.90
2019-03-12T07:53:28.425Z,99.90
2019-03-12T07:56:02.872Z,99.90
2019-03-12T07:58:39.519Z,99.90
2019-03-12T08:01:25.086Z,99.90
2019-03-12T08:04:12.435Z,99.90
2019-03-12T08:06:59.626Z,99.90
2019-03-12T08:09:50.935Z,99.90
2019-03-12T08:12:41.981Z,99.90
2019-03-12T08:15:25.344Z,99.90
2019-03-12T08:18:13.203Z,99.90
2019-03-12T08:21:07.546Z,99.90
2019-03-12T08:24:00.711Z,99.90
2019-03-12T08:26:40.818Z,99.90
2019-03-12T08:29:40.960Z,99.90
2019-03-12T08:32:25.308Z,99.90
2019-03-12T08:35:12.422Z,99.90
2019-03-12T08:38:00.622Z,99.90
2019-03-12T08:40:52.769Z,99.90
2019-03-12T08:43:41.516Z,99.90
2019-03-12T08:46:29.679Z,99.90
2019-03-12T08:49:14.586Z,99.90
2019-03-12T08:51:52.958Z,99.90
2019-03-12T08:54:33.977Z,99.90
2019-03-12T08:57:34.343Z,99.90
2019-03-12T09:00:14.227Z,99.90
2019-03-12T09:03:02.424Z,99.90
2019-03-12T09:06:02.685Z,98.50
2019-03-12T09:08:47.690Z,98.00
2019-03-12T09:11:28.532Z,97.20
2019-03-12T09:14:34.808Z,98.00
2019-03-12T09:17:21.706Z,98.00
2019-03-12T09:20:00.404Z,99.50
2019-03-12T09:22:54.646Z,99.60
2019-03-12T09:25:45.970Z,98.00
2019-03-12T09:28:23.142Z,96.10
2019-03-12T09:31:17.519Z,96.00
2019-03-12T09:33:52.845Z,96.00
2019-03-12T09:36:29.796Z,96.10
2019-03-12T09:39:36.248Z,95.70
2019-03-12T09:42:33.106Z,94.50
2019-03-12T09:45:37.131Z,93.70
2019-03-12T09:48:31.226Z,94.60
2019-03-12T09:51:08.442Z,93.00
2019-03-12T09:53:43.550Z,92.00
2019-03-12T09:56:34.486Z,90.90
2019-03-12T09:59:21.455Z,91.90
2019-03-12T10:02:00.700Z,94.60
2019-03-12T10:04:51.912Z,97.50
2019-03-12T10:07:34.178Z,99.30
2019-03-12T10:10:21.442Z,99.40
2019-03-12T10:13:08.250Z,99.80
2019-03-12T10:15:55.688Z,99.40
2019-03-12T10:18:37.226Z,98.20
2019-03-12T10:21:38.108Z,95.60
2019-03-12T10:24:13.762Z,92.20
2019-03-12T10:27:05.869Z,88.60
2019-03-12T10:29:51.426Z,84.20
2019-03-12T10:32:42.730Z,84.80
2019-03-12T10:35:25.750Z,86.50
2019-03-12T10:38:16.757Z,87.40
2019-03-12T10:41:05.816Z,88.20
2019-03-12T10:43:42.972Z,88.20
2019-03-12T10:46:40.022Z,90.20
2019-03-12T10:49:09.844Z,92.20
2019-03-12T10:51:39.086Z,93.20
2019-03-12T10:54:08.287Z,94.00
2019-03-12T10:56:37.452Z,93.90
2019-03-12T10:59:06.701Z,94.30
2019-03-12T11:01:36.066Z,93.40
2019-03-12T11:04:05.273Z,92.10
2019-03-12T11:06:34.462Z,87.30
2019-03-12T11:09:05.898Z,80.80
2019-03-12T11:11:35.203Z,82.60
2019-03-12T11:14:04.690Z,81.30
2019-03-12T11:16:33.850Z,87.90
2019-03-12T11:19:02.981Z,87.50
2019-03-12T11:21:32.228Z,88.20
2019-03-12T11:24:01.448Z,90.30
2019-03-12T11:26:30.752Z,89.40
2019-03-12T11:29:00.009Z,88.50
2019-03-12T11:31:31.520Z,90.70
2019-03-12T11:34:00.788Z,90.90
2019-03-12T11:36:30.128Z,87.10
2019-03-12T11:38:59.409Z,85.70
2019-03-12T11:41:28.741Z,89.00
2019-03-12T11:43:58.116Z,90.10
2019-03-12T11:46:27.368Z,87.50
2019-03-12T11:48:56.762Z,88.10
2019-03-12T11:51:26.119Z,85.60
2019-03-12T11:53:56.928Z,84.50
2019-03-12T11:56:26.397Z,83.60
2019-03-12T11:58:56.246Z,81.60
2019-03-12T12:01:25.796Z,82.30
2019-03-12T12:03:55.082Z,82.30
2019-03-12T12:06:24.803Z,83.30
2019-03-12T12:08:54.263Z,82.50
2019-03-12T12:11:23.568Z,79.10
2019-03-12T12:13:52.812Z,76.90
2019-03-12T12:16:21.982Z,69.70
2019-03-12T12:18:51.445Z,65.80
2019-03-12T12:21:20.669Z,64.70
2019-03-12T12:23:49.897Z,63.40
2019-03-12T12:26:19.191Z,60.50
2019-03-12T12:28:48.447Z,58.40
2019-03-12T12:31:17.634Z,56.20
2019-03-12T12:33:46.800Z,55.20
2019-03-12T12:36:16.058Z,56.60
2019-03-12T12:38:45.259Z,58.70
2019-03-12T12:41:14.496Z,57.60
2019-03-12T12:43:43.846Z,59.20
2019-03-12T12:46:13.088Z,60.40
2019-03-12T12:48:42.467Z,61.60
2019-03-12T12:51:11.790Z,60.20
2019-03-12T12:53:41.031Z,58.40
2019-03-12T12:56:10.199Z,55.50
2019-03-12T12:58:39.520Z,54.10
2019-03-12T13:01:08.689Z,56.60
2019-03-12T13:03:37.961Z,57.90
2019-03-12T13:06:07.222Z,60.90
2019-03-12T13:08:36.440Z,62.90
2019-03-12T13:11:05.707Z,66.80
2019-03-12T13:13:34.937Z,68.10
2019-03-12T13:16:04.151Z,69.20
2019-03-12T13:18:33.331Z,70.10
2019-03-12T13:21:02.509Z,70.60
2019-03-12T13:23:31.731Z,73.40
2019-03-12T13:26:00.917Z,72.80
2019-03-12T13:28:30.199Z,75.00
2019-03-12T13:30:59.415Z,76.30
2019-03-12T13:33:28.605Z,79.30
2019-03-12T13:35:57.840Z,78.20
2019-03-12T13:38:27.362Z,80.20
2019-03-12T13:40:56.864Z,78.90
2019-03-12T13:43:26.203Z,79.90
2019-03-12T13:45:55.607Z,79.50
2019-03-12T13:48:25.031Z,81.60
2019-03-12T13:50:54.327Z,80.70
2019-03-12T13:53:23.585Z,80.20
2019-03-12T13:55:54.023Z,81.90
2019-03-12T13:58:23.237Z,82.30
2019-03-12T14:00:52.460Z,82.70
2019-03-12T14:03:21.844Z,82.90
2019-03-12T14:05:51.082Z,81.20
2019-03-12T14:08:20.423Z,80.90
2019-03-12T14:10:49.719Z,83.60
2019-03-12T14:13:19.001Z,84.50
2019-03-12T14:15:48.399Z,85.30
2019-03-12T14:18:17.819Z,84.80
2019-03-12T14:20:49.146Z,84.40
2019-03-12T14:23:24.403Z,86.40
2019-03-12T14:25:53.731Z,85.40
2019-03-12T14:28:23.098Z,84.20
2019-03-12T14:30:52.487Z,84.10
2019-03-12T14:33:21.883Z,85.40
2019-03-12T14:35:52.282Z,86.70
2019-03-12T14:38:21.843Z,86.90
2019-03-12T14:40:51.119Z,87.30
2019-03-12T14:43:20.843Z,86.80
2019-03-12T14:45:50.816Z,84.20
2019-03-12T14:48:41.886Z,83.70
2019-03-12T14:51:23.814Z,83.70
2019-03-12T14:53:54.240Z,82.40
2019-03-12T14:56:27.460Z,83.20
2019-03-12T14:58:56.929Z,83.90
2019-03-12T15:01:26.276Z,85.40
2019-03-12T15:03:55.615Z,83.00
2019-03-12T15:06:24.900Z,83.50
2019-03-12T15:08:54.251Z,84.90
2019-03-12T15:11:23.547Z,86.40
2019-03-12T15:13:52.777Z,85.50
2019-03-12T15:16:21.934Z,83.20
2019-03-12T15:18:52.136Z,81.60
2019-03-12T15:21:21.665Z,73.00
2019-03-12T15:23:50.932Z,70.50
2019-03-12T15:26:20.169Z,70.80
2019-03-12T15:28:49.401Z,75.10
2019-03-12T15:31:18.555Z,77.60
2019-03-12T15:33:48.047Z,79.20
2019-03-12T15:36:17.300Z,80.00
2019-03-12T15:38:46.598Z,80.20
2019-03-12T15:41:16.459Z,81.00
2019-03-12T15:43:46.032Z,78.10
2019-03-12T15:46:18.118Z,78.20
2019-03-12T15:48:47.365Z,79.50
2019-03-12T15:51:16.527Z,79.90
2019-03-12T15:53:45.696Z,81.40
2019-03-12T15:56:14.970Z,79.50
2019-03-12T15:58:44.327Z,80.70
2019-03-12T16:01:13.611Z,80.10
2019-03-12T16:03:42.834Z,81.00
2019-03-12T16:06:12.143Z,82.70
2019-03-12T16:08:41.331Z,84.10
2019-03-12T16:11:10.611Z,84.40
2019-03-12T16:13:39.931Z,85.40
2019-03-12T16:16:09.312Z,86.90
2019-03-12T16:18:38.663Z,87.80
2019-03-12T16:21:07.887Z,88.60
2019-03-12T16:23:37.133Z,88.30
2019-03-12T16:26:06.488Z,89.20
2019-03-12T16:28:35.889Z,90.00
2019-03-12T16:31:05.094Z,90.60
2019-03-12T16:33:34.333Z,90.60
2019-03-12T16:36:03.584Z,91.10
2019-03-12T16:38:32.966Z,91.50
2019-03-12T16:41:02.124Z,92.00
2019-03-12T16:43:31.326Z,92.10
2019-03-12T16:46:00.650Z,92.40
2019-03-12T16:48:29.884Z,92.80
2019-03-12T16:50:59.196Z,92.80
2019-03-12T16:53:28.461Z,92.30
2019-03-12T16:55:57.669Z,92.20
2019-03-12T16:58:26.836Z,92.00
2019-03-12T17:00:56.014Z,92.20
2019-03-12T17:03:25.210Z,92.40
2019-03-12T17:05:54.379Z,92.60
2019-03-12T17:08:23.643Z,92.80
2019-03-12T17:11:00.781Z,93.30
2019-03-12T17:13:23.893Z,93.50
2019-03-12T17:15:54.947Z,94.10
2019-03-12T17:18:24.201Z,94.70
2019-03-12T17:20:53.524Z,95.10
2019-03-12T17:23:22.819Z,95.40
2019-03-12T17:25:52.122Z,95.70
2019-03-12T17:28:21.461Z,96.00
2019-03-12T17:30:50.722Z,96.10
2019-03-12T17:33:19.993Z,95.80
2019-03-12T17:35:50.106Z,95.60
2019-03-12T17:38:19.427Z,95.70
2019-03-12T17:40:48.754Z,95.90
2019-03-12T17:43:18.141Z,95.40
2019-03-12T17:45:47.760Z,95.50
2019-03-12T17:48:16.976Z,95.00
2019-03-12T17:50:46.237Z,95.30
2019-03-12T17:53:15.607Z,95.00
2019-03-12T17:55:44.930Z,95.30
2019-03-12T17:58:14.199Z,95.60
2019-03-12T18:00:44.708Z,95.80
2019-03-12T18:03:13.985Z,96.00
2019-03-12T18:05:43.142Z,96.40
2019-03-12T18:08:31.410Z,96.70
2019-03-12T18:11:00.722Z,96.70
2019-03-12T18:13:30.111Z,97.20
2019-03-12T18:15:59.411Z,97.60
2019-03-12T18:18:28.755Z,97.40
2019-03-12T18:20:58.143Z,97.70
2019-03-12T18:23:27.553Z,98.00
2019-03-12T18:25:56.952Z,98.10
2019-03-12T18:28:26.251Z,97.60
2019-03-12T18:30:55.551Z,97.60
2019-03-12T18:33:24.815Z,97.60
2019-03-12T18:35:54.154Z,97.70
2019-03-12T18:38:23.328Z,98.00
2019-03-12T18:40:52.550Z,97.70
2019-03-12T18:43:21.810Z,97.80
2019-03-12T18:46:10.230Z,97.40
2019-03-12T18:48:39.452Z,98.00
2019-03-12T18:51:08.684Z,97.70
2019-03-12T18:53:37.976Z,97.90
2019-03-12T18:56:08.830Z,98.10
2019-03-12T18:58:38.097Z,98.50
2019-03-12T19:01:09.803Z,98.60
2019-03-12T19:03:39.038Z,98.60
2019-03-12T19:06:10.011Z,98.80
2019-03-12T19:08:39.374Z,99.10
2019-03-12T19:11:08.692Z,99.30
2019-03-12T19:13:39.678Z,99.80
2019-03-12T19:16:08.872Z,99.70
2019-03-12T19:18:38.166Z,99.80
2019-03-12T19:21:07.474Z,99.90
2019-03-12T19:23:36.902Z,99.90
2019-03-12T19:26:09.184Z,99.90
2019-03-12T19:28:38.538Z,99.90
2019-03-12T19:31:22.728Z,99.90
2019-03-12T19:33:53.218Z,99.90
2019-03-12T19:36:22.516Z,99.60
2019-03-12T19:38:51.831Z,99.30
2019-03-12T19:41:21.070Z,99.50
2019-03-12T19:43:50.296Z,99.70
2019-03-12T19:46:19.534Z,99.80
2019-03-12T19:48:48.698Z,99.80
2019-03-12T19:51:17.853Z,99.70
2019-03-12T19:53:47.139Z,99.50
2019-03-12T19:56:16.384Z,99.70
2019-03-12T19:58:45.578Z,99.60
2019-03-12T20:01:15.072Z,99.50
2019-03-12T20:03:44.356Z,99.10
2019-03-12T20:06:13.661Z,99.30
2019-03-12T20:08:42.978Z,99.30
2019-03-12T20:11:51.686Z,99.30
2019-03-12T20:15:13.266Z,99.30
2019-03-12T20:18:23.876Z,99.20
2019-03-12T20:21:38.584Z,99.20
2019-03-12T20:24:44.768Z,99.30
2019-03-12T20:27:45.418Z,99.20
2019-03-12T20:30:58.026Z,99.00
2019-03-12T20:34:16.545Z,99.10
2019-03-12T20:37:41.153Z,99.00
2019-03-12T20:40:58.267Z,99.20
2019-03-12T20:44:04.394Z,99.90
2019-03-12T20:47:28.692Z,99.70
2019-03-12T20:50:47.991Z,99.40
2019-03-12T20:54:09.740Z,99.60
2019-03-12T20:57:10.295Z,99.90
2019-03-12T21:00:15.814Z,99.90
2019-03-12T21:03:31.592Z,99.90
2019-03-12T21:06:37.636Z,99.90
2019-03-12T21:09:54.439Z,99.90
2019-03-12T21:13:04.119Z,99.90
2019-03-12T21:16:38.731Z,99.90
2019-03-12T21:20:01.228Z,99.90
2019-03-12T21:22:56.570Z,99.90
2019-03-12T21:25:51.510Z,99.90
2019-03-12T21:28:54.848Z,99.90
2019-03-12T21:31:24.114Z,99.90
2019-03-12T21:33:53.362Z,99.90
2019-03-12T21:36:22.672Z,99.90
2019-03-12T21:38:51.959Z,99.90
2019-03-12T21:41:21.159Z,99.90
2019-03-12T21:43:50.521Z,99.90
2019-03-12T21:46:19.864Z,99.90
2019-03-12T21:48:49.064Z,99.90
2019-03-12T21:51:18.377Z,99.90
2019-03-12T21:53:47.639Z,99.90
2019-03-12T21:56:16.772Z,99.90
2019-03-12T21:58:46.015Z,99.90
2019-03-12T22:01:15.823Z,99.90
2019-03-12T22:03:45.083Z,99.90
2019-03-12T22:06:14.367Z,99.90
2019-03-12T22:08:43.633Z,99.90
2019-03-12T22:11:12.901Z,99.90
2019-03-12T22:13:42.635Z,99.90
2019-03-12T22:16:11.871Z,99.90
2019-03-12T22:18:41.090Z,99.90
2019-03-12T22:21:10.328Z,99.90
2019-03-12T22:23:43.345Z,99.90
2019-03-12T22:26:12.677Z,99.90
2019-03-12T22:28:41.939Z,99.90
2019-03-12T22:31:12.945Z,99.90
2019-03-12T22:33:42.151Z,99.90
2019-03-12T22:36:11.349Z,99.90
2019-03-12T22:38:40.647Z,99.90
2019-03-12T22:41:09.919Z,99.90
2019-03-12T22:43:39.259Z,99.90
2019-03-12T22:46:08.537Z,99.90
2019-03-12T22:48:37.857Z,99.90
2019-03-12T22:51:07.098Z,99.90
2019-03-12T22:53:36.354Z,99.90
2019-03-12T22:56:05.871Z,99.90
2019-03-12T22:58:35.059Z,99.90
2019-03-12T23:01:04.333Z,99.90
2019-03-12T23:03:33.559Z,99.90
2019-03-12T23:06:02.717Z,99.90
2019-03-12T23:08:31.991Z,99.90
2019-03-12T23:11:01.127Z,99.90
2019-03-12T23:13:30.350Z,99.90
2019-03-12T23:15:59.519Z,99.90
2019-03-12T23:18:28.744Z,99.90
2019-03-12T23:20:58.054Z,99.90
2019-03-12T23:23:27.237Z,99.90
2019-03-12T23:25:56.375Z,99.90
2019-03-12T23:28:25.519Z,99.90
2019-03-12T23:30:54.667Z,99.90
2019-03-12T23:33:23.828Z,99.90
2019-03-12T23:35:52.980Z,99.90
2019-03-12T23:38:22.176Z,99.90
2019-03-12T23:40:51.355Z,99.90
2019-03-12T23:43:20.689Z,99.90
2019-03-12T23:45:49.940Z,99.90
2019-03-12T23:48:19.164Z,99.90
2019-03-12T23:50:48.318Z,99.90
2019-03-12T23:53:17.554Z,99.90
2019-03-12T23:55:46.765Z,99.90
2019-03-12T23:58:15.990Z,99.90
